Time;durP1;ratioP1;P1;durP2;ratioP2;P2;SDS_P1;SDS_P2;PMS_P1;PMS_P2;Temp;Humidity;BMP_temperature;BMP_pressure;BME280_temperature;BME280_humidity;BME280_pressure;Samples;Min_cycle;Max_cycle;Signal;HPM_P1;HPM_P2
2023/10/06 00:01:42;;;;;;;;;;;20.70;70.70;;;;;;5074804;28;1112;-65
2023/10/06 00:04:15;;;;;;;;;;;20.70;70.80;;;;;;5072129;28;954;-65
2023/10/06 00:06:41;;;;;;;;;;;20.70;70.80;;;;;;5071364;28;982;-65
2023/10/06 00:09:12;;;;;;;;;;;20.70;70.80;;;;;;5075645;28;1276;-65
2023/10/06 00:11:38;;;;;;;;;;;20.70;70.80;;;;;;5074623;28;1023;-65
2023/10/06 00:14:07;;;;;;;;;;;20.70;70.80;;;;;;5073790;28;1135;-65
2023/10/06 00:16:39;;;;;;;;;;;20.70;70.80;;;;;;5073439;28;1134;-65
2023/10/06 00:19:12;;;;;;;;;;;20.70;70.80;;;;;;5076433;28;1967;-65
2023/10/06 00:21:43;;;;;;;;;;;20.70;70.80;;;;;;5076173;28;1338;-65
2023/10/06 00:24:10;;;;;;;;;;;20.70;70.80;;;;;;5081761;28;1498;-65
2023/10/06 00:26:37;;;;;;;;;;;20.70;70.80;;;;;;5079819;28;1355;-66
2023/10/06 00:29:02;;;;;;;;;;;20.70;70.80;;;;;;5074901;28;1294;-65
2023/10/06 00:31:31;;;;;;;;;;;20.70;70.80;;;;;;5076149;28;1530;-66
2023/10/06 00:34:00;;;;;;;;;;;20.70;70.80;;;;;;5075713;28;1529;-66
2023/10/06 00:36:29;;;;;;;;;;;20.70;70.80;;;;;;5077279;28;1494;-65
2023/10/06 00:38:55;;;;;;;;;;;20.70;70.90;;;;;;5077047;28;1906;-65
2023/10/06 00:41:21;;;;;;;;;;;20.70;70.90;;;;;;5076147;28;1344;-65
2023/10/06 00:43:47;;;;;;;;;;;20.70;70.80;;;;;;5079215;28;1552;-65
2023/10/06 00:46:13;;;;;;;;;;;20.70;70.80;;;;;;5082403;28;1467;-65
2023/10/06 00:48:44;;;;;;;;;;;20.70;70.90;;;;;;5075016;28;1678;-65
2023/10/06 00:51:13;;;;;;;;;;;20.70;70.80;;;;;;5074488;28;1534;-65
2023/10/06 00:53:41;;;;;;;;;;;20.70;70.90;;;;;;5077708;28;1570;-65
2023/10/06 00:56:16;;;;;;;;;;;20.70;70.90;;;;;;5078739;28;1504;-66
2023/10/06 00:58:42;;;;;;;;;;;20.70;70.90;;;;;;5076859;28;1914;-65
2023/10/06 01:01:08;;;;;;;;;;;20.70;70.90;;;;;;5077042;28;1372;-65
2023/10/06 01:03:41;;;;;;;;;;;20.70;70.90;;;;;;5073853;28;1540;-65
2023/10/06 01:06:13;;;;;;;;;;;20.70;70.90;;;;;;5076669;28;1531;-65
2023/10/06 01:08:39;;;;;;;;;;;20.70;70.90;;;;;;5077210;28;1711;-66
2023/10/06 01:11:16;;;;;;;;;;;20.70;70.90;;;;;;5076266;28;1487;-65
2023/10/06 01:13:52;;;;;;;;;;;20.70;70.90;;;;;;5073781;28;1417;-65
2023/10/06 01:16:17;;;;;;;;;;;20.70;70.90;;;;;;5076199;28;1522;-66
2023/10/06 01:18:43;;;;;;;;;;;20.70;70.90;;;;;;5076265;28;1901;-65
2023/10/06 01:21:17;;;;;;;;;;;20.70;70.90;;;;;;5079563;28;1476;-65
2023/10/06 01:23:45;;;;;;;;;;;20.70;70.90;;;;;;5079277;28;1486;-65
2023/10/06 01:26:13;;;;;;;;;;;20.70;70.90;;;;;;5076516;28;1317;-65
2023/10/06 01:28:44;;;;;;;;;;;20.70;70.90;;;;;;5077026;28;1640;-65
2023/10/06 01:31:12;;;;;;;;;;;20.70;70.90;;;;;;5075653;28;1362;-65
2023/10/06 01:33:37;;;;;;;;;;;20.60;70.80;;;;;;5075850;28;1708;-65
2023/10/06 01:36:04;;;;;;;;;;;20.70;70.90;;;;;;5076060;28;1142;-65
2023/10/06 01:38:29;;;;;;;;;;;20.70;70.90;;;;;;5074829;28;1477;-65
2023/10/06 01:40:56;;;;;;;;;;;20.70;71.00;;;;;;5078218;28;1894;-65
2023/10/06 01:43:22;;;;;;;;;;;20.70;70.90;;;;;;5077138;28;1487;-65
2023/10/06 01:45:48;;;;;;;;;;;20.70;70.90;;;;;;5078921;28;1127;-65
2023/10/06 01:50:39;;;;;;;;;;;20.70;71.00;;;;;;5077395;28;2055;-66
2023/10/06 01:53:06;;;;;;;;;;;20.70;71.00;;;;;;5078233;28;1273;-65
2023/10/06 01:55:37;;;;;;;;;;;20.70;71.00;;;;;;5074377;28;1498;-65
2023/10/06 01:58:04;;;;;;;;;;;20.60;70.90;;;;;;5073151;28;1333;-65
2023/10/06 02:00:35;;;;;;;;;;;20.70;71.00;;;;;;5077003;28;1902;-66
2023/10/06 02:03:01;;;;;;;;;;;20.70;71.00;;;;;;5079277;28;1309;-65
2023/10/06 02:05:27;;;;;;;;;;;20.70;71.00;;;;;;5076959;28;1344;-65
2023/10/06 02:08:00;;;;;;;;;;;20.70;71.00;;;;;;5076350;28;1301;-66
2023/10/06 02:10:25;;;;;;;;;;;20.70;71.00;;;;;;5073084;28;1363;-65
2023/10/06 02:12:51;;;;;;;;;;;20.70;71.00;;;;;;5077347;28;1457;-65
2023/10/06 02:15:16;;;;;;;;;;;20.70;71.00;;;;;;5073815;28;1543;-65
2023/10/06 02:17:42;;;;;;;;;;;20.70;71.00;;;;;;5076499;28;1321;-66
2023/10/06 02:20:17;;;;;;;;;;;20.70;71.00;;;;;;5075056;28;1953;-65
2023/10/06 02:22:42;;;;;;;;;;;20.70;71.10;;;;;;5076379;28;1270;-65
2023/10/06 02:25:11;;;;;;;;;;;20.70;71.00;;;;;;5079390;28;1347;-65
2023/10/06 02:27:44;;;;;;;;;;;20.70;71.00;;;;;;5078665;28;1658;-65
2023/10/06 02:30:19;;;;;;;;;;;20.70;71.00;;;;;;5073839;28;1461;-66
2023/10/06 02:32:45;;;;;;;;;;;20.60;71.00;;;;;;5079728;28;1303;-65
2023/10/06 02:35:12;;;;;;;;;;;20.70;71.00;;;;;;5073793;28;1307;-66
2023/10/06 02:37:38;;;;;;;;;;;20.60;71.00;;;;;;5072158;28;1282;-65
2023/10/06 02:40:11;;;;;;;;;;;20.70;71.00;;;;;;5077152;22;2054;-67
2023/10/06 02:42:43;;;;;;;;;;;20.70;71.10;;;;;;5060683;28;1413;-67
2023/10/06 02:45:09;;;;;;;;;;;20.60;71.00;;;;;;5059852;28;1317;-67
2023/10/06 02:47:35;;;;;;;;;;;20.60;71.00;;;;;;5057952;28;1183;-67
2023/10/06 02:50:07;;;;;;;;;;;20.60;71.00;;;;;;5060517;28;1431;-67
2023/10/06 02:52:37;;;;;;;;;;;20.70;71.10;;;;;;5061729;28;1571;-67
2023/10/06 02:57:28;;;;;;;;;;;20.70;71.10;;;;;;5059521;28;1162;-68
2023/10/06 02:59:56;;;;;;;;;;;20.60;71.00;;;;;;5058156;28;1906;-67
2023/10/06 03:02:25;;;;;;;;;;;20.60;71.00;;;;;;5061425;28;1400;-67
2023/10/06 03:04:55;;;;;;;;;;;20.70;71.10;;;;;;5061285;28;946;-67
2023/10/06 03:07:22;;;;;;;;;;;20.60;71.00;;;;;;5060210;28;1470;-67
2023/10/06 03:09:48;;;;;;;;;;;20.70;71.10;;;;;;5059590;28;1355;-67
2023/10/06 03:14:48;;;;;;;;;;;20.70;71.10;;;;;;5062806;28;945;-66
2023/10/06 03:17:13;;;;;;;;;;;20.70;71.10;;;;;;5059901;28;1090;-66
2023/10/06 03:19:43;;;;;;;;;;;20.70;71.10;;;;;;5060986;28;1965;-67
2023/10/06 03:22:13;;;;;;;;;;;20.70;71.10;;;;;;5059678;28;1726;-68
2023/10/06 03:24:53;;;;;;;;;;;20.70;71.10;;;;;;5059222;28;1566;-66
2023/10/06 03:27:18;;;;;;;;;;;20.60;71.00;;;;;;5060453;28;1268;-67
2023/10/06 03:30:07;;;;;;;;;;;20.60;71.00;;;;;;5072225;28;1394;-66
2023/10/06 03:32:32;;;;;;;;;;;20.70;71.10;;;;;;5057388;28;1335;-67
2023/10/06 03:35:14;;;;;;;;;;;20.60;71.00;;;;;;5062685;28;1405;-66
2023/10/06 03:37:52;;;;;;;;;;;20.60;71.00;;;;;;5060490;28;1487;-66
2023/10/06 03:40:25;;;;;;;;;;;20.60;71.10;;;;;;5060062;28;1914;-67
2023/10/06 03:42:52;;;;;;;;;;;20.70;71.10;;;;;;5058911;28;1275;-66
2023/10/06 03:45:29;;;;;;;;;;;20.70;71.10;;;;;;5063269;28;1465;-67
2023/10/06 03:48:08;;;;;;;;;;;20.70;71.10;;;;;;5060496;28;1578;-67
2023/10/06 03:50:43;;;;;;;;;;;20.70;71.20;;;;;;5050336;28;1443;-67
2023/10/06 03:53:09;;;;;;;;;;;20.70;71.30;;;;;;5060495;28;1046;-67
2023/10/06 03:55:47;;;;;;;;;;;20.70;71.20;;;;;;5060574;28;1264;-66
2023/10/06 03:58:16;;;;;;;;;;;20.70;71.10;;;;;;5050084;28;1488;-66
2023/10/06 04:00:47;;;;;;;;;;;20.70;71.10;;;;;;5047998;28;1910;-67
2023/10/06 04:03:13;;;;;;;;;;;20.60;71.10;;;;;;5060172;28;1428;-66
2023/10/06 04:05:44;;;;;;;;;;;20.60;71.10;;;;;;5059315;28;1370;-66
2023/10/06 04:08:15;;;;;;;;;;;20.60;71.10;;;;;;5057066;28;1326;-67
2023/10/06 04:10:42;;;;;;;;;;;20.70;71.20;;;;;;5074255;28;1536;-66
2023/10/06 04:13:08;;;;;;;;;;;20.60;71.10;;;;;;5059036;28;1441;-66
2023/10/06 04:15:43;;;;;;;;;;;20.60;71.10;;;;;;5059806;28;1426;-67
2023/10/06 04:18:10;;;;;;;;;;;20.70;71.20;;;;;;5049060;28;1425;-66
2023/10/06 04:20:36;;;;;;;;;;;20.70;71.20;;;;;;5057256;28;1913;-66
2023/10/06 04:23:02;;;;;;;;;;;20.70;71.20;;;;;;5058346;28;1229;-67
2023/10/06 04:25:28;;;;;;;;;;;20.60;71.20;;;;;;5057942;28;1392;-66
2023/10/06 04:27:54;;;;;;;;;;;20.70;71.20;;;;;;5058777;28;1130;-66
2023/10/06 04:30:19;;;;;;;;;;;20.70;71.20;;;;;;5061456;28;1473;-67
2023/10/06 04:32:44;;;;;;;;;;;20.60;71.20;;;;;;5058079;28;1523;-67
2023/10/06 04:35:19;;;;;;;;;;;20.60;71.10;;;;;;5060971;28;1494;-67
2023/10/06 04:37:46;;;;;;;;;;;20.60;71.10;;;;;;5056313;28;1505;-67
2023/10/06 04:40:16;;;;;;;;;;;20.60;71.20;;;;;;5052651;28;1910;-67
2023/10/06 04:42:42;;;;;;;;;;;20.60;71.10;;;;;;5059304;28;2295;-66
2023/10/06 04:45:12;;;;;;;;;;;20.60;71.10;;;;;;5058340;28;1356;-66
2023/10/06 04:47:40;;;;;;;;;;;20.60;71.20;;;;;;5050938;28;4291;-67
2023/10/06 04:50:09;;;;;;;;;;;20.60;71.20;;;;;;5057634;28;1304;-68
2023/10/06 04:52:38;;;;;;;;;;;20.60;71.20;;;;;;5059014;28;1096;-69
2023/10/06 04:55:04;;;;;;;;;;;20.70;71.20;;;;;;5056361;28;1470;-67
2023/10/06 04:57:29;;;;;;;;;;;20.60;71.20;;;;;;5048632;28;1199;-68
2023/10/06 04:59:55;;;;;;;;;;;20.70;71.30;;;;;;5059021;28;1906;-69
2023/10/06 05:02:22;;;;;;;;;;;20.60;71.20;;;;;;5057534;28;1293;-68
2023/10/06 05:04:47;;;;;;;;;;;20.60;71.20;;;;;;5056743;28;1156;-68
2023/10/06 05:07:13;;;;;;;;;;;20.70;71.30;;;;;;5057604;28;1405;-68
2023/10/06 05:09:40;;;;;;;;;;;20.60;71.20;;;;;;5064275;28;1292;-68
2023/10/06 05:12:05;;;;;;;;;;;20.60;71.20;;;;;;5062768;28;1156;-69
2023/10/06 05:14:34;;;;;;;;;;;20.60;72.00;;;;;;5060177;28;1555;-68
2023/10/06 05:16:59;;;;;;;;;;;20.70;71.30;;;;;;5077290;28;1465;-69
2023/10/06 05:19:26;;;;;;;;;;;20.60;71.20;;;;;;5064795;28;1977;-68
2023/10/06 05:21:53;;;;;;;;;;;20.60;71.20;;;;;;5056169;28;1364;-69
2023/10/06 05:24:18;;;;;;;;;;;20.60;71.30;;;;;;5064227;28;1431;-70
2023/10/06 05:26:44;;;;;;;;;;;20.60;71.20;;;;;;5063988;28;1668;-68
2023/10/06 05:29:14;;;;;;;;;;;20.60;71.20;;;;;;5061933;28;1302;-68
2023/10/06 05:31:39;;;;;;;;;;;20.60;71.20;;;;;;5060466;28;1264;-68
2023/10/06 05:34:07;;;;;;;;;;;20.60;71.20;;;;;;5051802;28;1211;-68
2023/10/06 05:36:33;;;;;;;;;;;20.60;71.20;;;;;;5061914;28;1396;-68
2023/10/06 05:38:59;;;;;;;;;;;20.70;71.30;;;;;;5059124;28;1910;-68
2023/10/06 05:41:34;;;;;;;;;;;20.60;71.20;;;;;;5061453;28;1326;-68
2023/10/06 05:43:59;;;;;;;;;;;20.60;70.90;;;;;;5061665;28;1432;-68
2023/10/06 05:46:25;;;;;;;;;;;20.60;70.50;;;;;;5059996;28;1338;-67
2023/10/06 05:48:51;;;;;;;;;;;20.60;70.80;;;;;;5075739;28;1393;-69
2023/10/06 05:51:21;;;;;;;;;;;20.60;70.30;;;;;;5050715;28;5135;-68
2023/10/06 05:53:48;;;;;;;;;;;20.60;70.00;;;;;;5060142;28;3907;-69
2023/10/06 05:56:15;;;;;;;;;;;20.60;69.90;;;;;;5060398;28;1161;-68
2023/10/06 05:58:43;;;;;;;;;;;20.70;69.70;;;;;;5061197;28;1341;-68
2023/10/06 06:01:13;;;;;;;;;;;20.60;69.50;;;;;;5063222;28;1965;-67
2023/10/06 06:03:44;;;;;;;;;;;20.70;69.10;;;;;;5063083;28;1309;-67
2023/10/06 06:06:10;;;;;;;;;;;20.60;68.80;;;;;;5062190;28;1007;-67
2023/10/06 06:08:37;;;;;;;;;;;20.60;68.40;;;;;;5062385;28;1389;-67
2023/10/06 06:11:05;;;;;;;;;;;20.60;68.30;;;;;;5063061;28;1006;-68
2023/10/06 06:13:30;;;;;;;;;;;20.60;68.20;;;;;;5060908;28;983;-67
2023/10/06 06:15:56;;;;;;;;;;;20.60;68.10;;;;;;5062638;28;871;-66
2023/10/06 06:18:21;;;;;;;;;;;20.60;68.20;;;;;;5060739;28;1503;-67
2023/10/06 06:20:47;;;;;;;;;;;20.60;68.00;;;;;;5062657;28;1914;-67
2023/10/06 06:23:15;;;;;;;;;;;20.60;68.00;;;;;;5059756;28;1472;-68
2023/10/06 06:25:40;;;;;;;;;;;20.60;68.00;;;;;;5054814;28;4689;-68
2023/10/06 06:28:07;;;;;;;;;;;20.60;68.10;;;;;;5057045;28;3823;-68
2023/10/06 06:30:39;;;;;;;;;;;20.60;68.00;;;;;;5061371;28;1405;-67
2023/10/06 06:33:07;;;;;;;;;;;20.60;68.00;;;;;;5060860;28;1607;-68
2023/10/06 06:35:35;;;;;;;;;;;20.60;67.80;;;;;;5062088;28;1255;-67
2023/10/06 06:38:01;;;;;;;;;;;20.60;68.00;;;;;;5060788;28;1535;-67
2023/10/06 06:40:30;;;;;;;;;;;20.60;67.90;;;;;;5056029;28;1989;-67
2023/10/06 06:42:55;;;;;;;;;;;20.60;67.80;;;;;;5057790;28;1567;-67
2023/10/06 06:45:21;;;;;;;;;;;20.60;67.70;;;;;;5059528;28;1369;-67
2023/10/06 06:47:46;;;;;;;;;;;20.60;67.80;;;;;;5059587;28;1198;-67
2023/10/06 06:50:13;;;;;;;;;;;20.60;67.70;;;;;;5060305;28;1818;-68
2023/10/06 06:52:42;;;;;;;;;;;20.60;67.80;;;;;;5060451;28;1329;-67
2023/10/06 06:55:12;;;;;;;;;;;20.60;67.90;;;;;;5061663;28;1565;-67
2023/10/06 06:57:41;;;;;;;;;;;20.50;67.80;;;;;;5047837;28;1314;-67
2023/10/06 07:00:09;;;;;;;;;;;20.60;67.80;;;;;;5060802;28;1981;-68
2023/10/06 07:02:35;;;;;;;;;;;20.60;67.70;;;;;;5064579;28;1363;-67
2023/10/06 07:05:01;;;;;;;;;;;20.60;67.80;;;;;;5063220;28;1275;-67
2023/10/06 07:07:26;;;;;;;;;;;20.60;68.00;;;;;;5060564;28;1304;-67
2023/10/06 07:09:52;;;;;;;;;;;20.60;68.20;;;;;;5063276;28;1362;-67
2023/10/06 07:12:18;;;;;;;;;;;20.60;68.20;;;;;;5061403;28;1345;-67
2023/10/06 07:14:43;;;;;;;;;;;20.60;68.40;;;;;;5063724;28;1785;-67
2023/10/06 07:17:09;;;;;;;;;;;20.70;68.60;;;;;;5060158;28;1388;-68
2023/10/06 07:19:35;;;;;;;;;;;20.70;68.70;;;;;;5057087;28;1965;-68
2023/10/06 07:22:00;;;;;;;;;;;20.70;68.80;;;;;;5058917;28;1569;-67
2023/10/06 07:24:26;;;;;;;;;;;20.70;68.90;;;;;;5061603;28;1471;-67
2023/10/06 07:26:52;;;;;;;;;;;20.70;69.00;;;;;;5062615;28;1394;-67
2023/10/06 07:29:18;;;;;;;;;;;20.70;69.10;;;;;;5059047;28;1326;-67
2023/10/06 07:31:43;;;;;;;;;;;20.70;69.90;;;;;;5058651;28;1483;-68
2023/10/06 07:34:11;;;;;;;;;;;20.70;69.30;;;;;;5060319;28;1222;-67
2023/10/06 07:36:37;;;;;;;;;;;20.70;69.50;;;;;;5059850;28;1232;-67
2023/10/06 07:39:08;;;;;;;;;;;20.70;69.60;;;;;;5062238;28;1967;-68
2023/10/06 07:41:33;;;;;;;;;;;20.80;69.80;;;;;;5063195;28;1421;-68
2023/10/06 07:43:59;;;;;;;;;;;20.80;69.90;;;;;;5058774;28;1212;-68
2023/10/06 07:46:26;;;;;;;;;;;20.80;69.90;;;;;;5059003;28;1581;-68
2023/10/06 07:48:53;;;;;;;;;;;20.80;69.90;;;;;;5060872;28;1454;-68
2023/10/06 07:51:19;;;;;;;;;;;20.80;70.20;;;;;;5060452;28;1367;-68
2023/10/06 07:53:45;;;;;;;;;;;20.80;70.70;;;;;;5060690;28;1584;-67
2023/10/06 07:56:11;;;;;;;;;;;20.90;70.90;;;;;;5058784;28;1341;-68
2023/10/06 07:58:43;;;;;;;;;;;20.90;70.80;;;;;;5059535;28;1560;-68
2023/10/06 08:01:09;;;;;;;;;;;20.90;70.80;;;;;;5059213;28;1914;-68
2023/10/06 08:03:37;;;;;;;;;;;20.90;70.80;;;;;;5060957;28;1827;-70
2023/10/06 08:06:03;;;;;;;;;;;20.90;70.60;;;;;;5057445;28;1443;-68
2023/10/06 08:08:29;;;;;;;;;;;20.90;71.20;;;;;;5059954;28;1826;-68
2023/10/06 08:10:56;;;;;;;;;;;20.90;70.60;;;;;;5060538;28;1462;-69
2023/10/06 08:13:21;;;;;;;;;;;20.90;70.50;;;;;;5057793;28;1287;-69
2023/10/06 08:15:47;;;;;;;;;;;20.90;70.50;;;;;;5063351;28;1515;-68
2023/10/06 08:18:12;;;;;;;;;;;20.90;70.40;;;;;;5057460;28;1499;-69
2023/10/06 08:20:41;;;;;;;;;;;20.90;70.50;;;;;;5061522;28;1910;-68
2023/10/06 08:23:11;;;;;;;;;;;20.90;70.50;;;;;;5062081;28;1164;-68
2023/10/06 08:25:37;;;;;;;;;;;20.90;70.50;;;;;;5059543;28;2120;-68
2023/10/06 08:28:05;;;;;;;;;;;20.90;70.50;;;;;;5058642;28;1367;-70
2023/10/06 08:30:32;;;;;;;;;;;20.90;70.60;;;;;;5060905;28;1220;-71
2023/10/06 08:32:59;;;;;;;;;;;21.00;70.60;;;;;;5058916;28;1498;-70
2023/10/06 08:35:26;;;;;;;;;;;20.90;70.60;;;;;;5059570;28;1218;-71
2023/10/06 08:37:52;;;;;;;;;;;21.00;71.40;;;;;;5058772;28;1445;-71
2023/10/06 08:40:19;;;;;;;;;;;21.00;71.30;;;;;;5056018;28;1973;-68
2023/10/06 08:42:48;;;;;;;;;;;21.00;71.20;;;;;;5062756;28;1497;-68
2023/10/06 08:45:15;;;;;;;;;;;21.00;71.20;;;;;;5065098;28;1779;-68
2023/10/06 08:47:40;;;;;;;;;;;21.00;71.20;;;;;;5062289;28;1211;-68
2023/10/06 08:50:06;;;;;;;;;;;21.00;71.20;;;;;;5063612;28;2096;-68
2023/10/06 08:52:32;;;;;;;;;;;21.00;71.20;;;;;;5063285;28;938;-69
2023/10/06 08:54:59;;;;;;;;;;;21.00;71.60;;;;;;5059892;28;986;-68
2023/10/06 08:57:24;;;;;;;;;;;21.10;71.90;;;;;;5065389;28;1304;-68
2023/10/06 08:59:50;;;;;;;;;;;21.10;72.00;;;;;;5063522;28;1936;-68
2023/10/06 09:02:17;;;;;;;;;;;21.10;72.00;;;;;;5058674;28;1015;-69
2023/10/06 09:04:42;;;;;;;;;;;21.10;71.80;;;;;;5064941;28;1194;-69
2023/10/06 09:07:08;;;;;;;;;;;21.20;71.60;;;;;;5062717;28;1243;-68
2023/10/06 09:09:33;;;;;;;;;;;21.20;71.40;;;;;;5061121;28;1463;-68
2023/10/06 09:11:59;;;;;;;;;;;21.10;71.20;;;;;;5062631;28;1260;-68
2023/10/06 09:14:25;;;;;;;;;;;21.20;71.20;;;;;;5064691;28;1461;-68
2023/10/06 09:16:50;;;;;;;;;;;21.20;71.20;;;;;;5063482;28;1435;-68
2023/10/06 09:19:17;;;;;;;;;;;21.20;71.30;;;;;;5061229;28;1898;-69
2023/10/06 09:22:02;;;;;;;;;;;21.20;71.30;;;;;;5063858;28;1052;-69
2023/10/06 09:24:27;;;;;;;;;;;21.20;71.20;;;;;;5060350;28;1163;-68
2023/10/06 09:26:55;;;;;;;;;;;21.20;71.30;;;;;;5059459;28;1437;-68
2023/10/06 09:29:32;;;;;;;;;;;21.20;71.30;;;;;;5060860;28;1423;-68
2023/10/06 09:31:58;;;;;;;;;;;21.20;71.40;;;;;;5062602;28;1470;-69
2023/10/06 09:34:24;;;;;;;;;;;21.20;71.30;;;;;;5061465;28;1434;-68
2023/10/06 09:36:50;;;;;;;;;;;21.20;71.40;;;;;;5062023;28;1491;-69
2023/10/06 09:39:34;;;;;;;;;;;21.20;71.50;;;;;;5061699;28;1977;-68
2023/10/06 09:42:00;;;;;;;;;;;21.20;71.50;;;;;;5062536;28;1460;-69
2023/10/06 09:44:25;;;;;;;;;;;21.20;71.40;;;;;;5063192;28;1407;-69
2023/10/06 09:46:54;;;;;;;;;;;21.20;71.40;;;;;;5063029;28;1460;-69
2023/10/06 09:49:20;;;;;;;;;;;21.20;71.70;;;;;;5061691;28;1280;-71
2023/10/06 09:51:45;;;;;;;;;;;21.20;71.90;;;;;;5062586;28;1367;-69
2023/10/06 09:54:12;;;;;;;;;;;21.20;71.90;;;;;;5061192;28;1871;-71
2023/10/06 09:56:40;;;;;;;;;;;21.20;71.80;;;;;;5062364;28;1345;-68
2023/10/06 09:59:07;;;;;;;;;;;21.20;72.00;;;;;;5059122;28;1973;-69
2023/10/06 10:01:34;;;;;;;;;;;21.20;72.00;;;;;;5063202;28;1160;-69
2023/10/06 10:04:00;;;;;;;;;;;21.20;72.00;;;;;;5061615;28;1328;-69
2023/10/06 10:06:25;;;;;;;;;;;21.20;72.00;;;;;;5060329;28;1282;-69
2023/10/06 10:08:51;;;;;;;;;;;21.20;71.80;;;;;;5059885;28;1572;-69
2023/10/06 10:11:20;;;;;;;;;;;21.20;71.80;;;;;;5063645;28;1337;-70
2023/10/06 10:14:06;;;;;;;;;;;21.20;72.00;;;;;;5064134;28;1351;-69
2023/10/06 10:16:51;;;;;;;;;;;21.20;72.10;;;;;;5077462;28;1222;-70
2023/10/06 10:19:18;;;;;;;;;;;21.20;72.10;;;;;;5061768;28;1971;-70
2023/10/06 10:21:44;;;;;;;;;;;21.20;72.20;;;;;;5059496;28;1540;-69
2023/10/06 10:24:09;;;;;;;;;;;21.20;72.30;;;;;;5059915;28;1377;-70
2023/10/06 10:26:36;;;;;;;;;;;21.30;72.20;;;;;;5061381;28;1294;-69
2023/10/06 10:29:15;;;;;;;;;;;21.30;72.00;;;;;;5062095;28;1397;-70
2023/10/06 10:31:46;;;;;;;;;;;21.20;71.90;;;;;;5065617;28;1345;-70
2023/10/06 10:34:20;;;;;;;;;;;21.20;72.20;;;;;;5062173;28;1396;-69
2023/10/06 10:36:48;;;;;;;;;;;21.30;72.70;;;;;;5062089;28;1494;-69
2023/10/06 10:39:14;;;;;;;;;;;21.30;72.50;;;;;;5061130;28;1993;-69
2023/10/06 10:41:40;;;;;;;;;;;21.30;72.30;;;;;;5060633;28;1255;-72
2023/10/06 10:44:06;;;;;;;;;;;21.30;72.20;;;;;;5062764;28;1166;-71
2023/10/06 10:46:39;;;;;;;;;;;21.30;72.20;;;;;;5059412;28;1134;-72
2023/10/06 10:49:06;;;;;;;;;;;21.30;72.10;;;;;;5058932;28;1358;-71
2023/10/06 10:51:33;;;;;;;;;;;21.30;72.20;;;;;;5063495;28;1490;-71
2023/10/06 10:53:59;;;;;;;;;;;21.30;72.20;;;;;;5060760;28;1403;-72
2023/10/06 10:56:27;;;;;;;;;;;21.30;72.20;;;;;;5062124;28;1241;-71
2023/10/06 10:58:53;;;;;;;;;;;21.30;72.20;;;;;;5060711;28;1498;-71
2023/10/06 11:01:23;;;;;;;;;;;21.20;72.20;;;;;;5062614;28;1898;-70
2023/10/06 11:04:08;;;;;;;;;;;21.30;72.40;;;;;;5061781;28;1605;-71
2023/10/06 11:06:35;;;;;;;;;;;21.30;72.40;;;;;;5063839;28;998;-71
2023/10/06 11:09:12;;;;;;;;;;;21.30;72.30;;;;;;5060875;28;1280;-69
2023/10/06 11:11:40;;;;;;;;;;;21.30;72.30;;;;;;5059193;28;1091;-70
2023/10/06 11:14:06;;;;;;;;;;;21.30;72.60;;;;;;5059741;28;1222;-69
2023/10/06 11:16:32;;;;;;;;;;;21.30;72.50;;;;;;5058590;28;1620;-69
2023/10/06 11:18:58;;;;;;;;;;;21.30;72.40;;;;;;5060729;28;1906;-71
2023/10/06 11:21:24;;;;;;;;;;;21.30;72.40;;;;;;5060398;28;1291;-69
2023/10/06 11:23:50;;;;;;;;;;;21.30;72.50;;;;;;5058720;28;1216;-70
2023/10/06 11:26:26;;;;;;;;;;;21.30;72.30;;;;;;5060286;28;1263;-68
2023/10/06 11:28:51;;;;;;;;;;;21.30;72.50;;;;;;5062525;28;1574;-68
2023/10/06 11:31:17;;;;;;;;;;;21.30;73.00;;;;;;5051518;28;1309;-68
2023/10/06 11:33:42;;;;;;;;;;;21.30;72.90;;;;;;5061646;28;1121;-69
2023/10/06 11:36:08;;;;;;;;;;;21.30;72.80;;;;;;5061734;28;1339;-70
2023/10/06 11:38:33;;;;;;;;;;;21.30;72.80;;;;;;5057580;28;1395;-70
2023/10/06 11:40:59;;;;;;;;;;;21.30;72.60;;;;;;5056947;28;2061;-70
2023/10/06 11:43:24;;;;;;;;;;;21.30;72.40;;;;;;5059283;28;1368;-69
2023/10/06 11:45:59;;;;;;;;;;;21.30;72.50;;;;;;5060397;28;886;-70
2023/10/06 11:48:28;;;;;;;;;;;21.30;73.70;;;;;;5059668;28;1335;-69
2023/10/06 11:51:06;;;;;;;;;;;21.40;73.80;;;;;;5061900;28;1458;-69
2023/10/06 11:53:35;;;;;;;;;;;21.40;73.50;;;;;;5062880;28;1464;-70
2023/10/06 11:56:04;;;;;;;;;;;21.30;73.40;;;;;;5058438;28;1345;-70
2023/10/06 11:58:30;;;;;;;;;;;21.40;72.90;;;;;;5060355;28;1868;-71
2023/10/06 12:00:56;;;;;;;;;;;21.40;73.50;;;;;;5060258;28;1969;-70
2023/10/06 12:03:31;;;;;;;;;;;21.40;73.70;;;;;;5050482;28;1406;-70
2023/10/06 12:05:57;;;;;;;;;;;21.40;73.10;;;;;;5060791;28;1840;-70
2023/10/06 12:08:22;;;;;;;;;;;21.40;71.40;;;;;;5058884;28;1362;-69
2023/10/06 12:10:50;;;;;;;;;;;21.30;70.80;;;;;;5060166;28;1619;-71
2023/10/06 12:13:16;;;;;;;;;;;21.30;70.20;;;;;;5062796;28;1347;-71
2023/10/06 12:15:44;;;;;;;;;;;21.20;69.70;;;;;;5060373;28;1919;-71
2023/10/06 12:18:10;;;;;;;;;;;21.20;69.20;;;;;;5063557;28;2232;-71
2023/10/06 12:20:35;;;;;;;;;;;21.20;69.10;;;;;;5065722;28;1964;-71
2023/10/06 12:23:01;;;;;;;;;;;21.10;68.70;;;;;;5067231;28;1383;-71
2023/10/06 12:25:27;;;;;;;;;;;21.10;69.00;;;;;;5064919;28;1659;-70
2023/10/06 12:27:52;;;;;;;;;;;21.10;68.20;;;;;;5064329;28;1246;-70
2023/10/06 12:30:18;;;;;;;;;;;21.00;67.80;;;;;;5059403;28;2056;-72
2023/10/06 12:32:45;;;;;;;;;;;21.00;67.50;;;;;;5063181;28;1299;-71
2023/10/06 12:35:11;;;;;;;;;;;21.00;67.10;;;;;;5061941;28;1367;-70
2023/10/06 12:37:40;;;;;;;;;;;21.00;67.10;;;;;;5060085;28;1982;-71
2023/10/06 12:40:08;;;;;;;;;;;20.90;66.80;;;;;;5062542;28;1898;-71
2023/10/06 12:42:38;;;;;;;;;;;20.90;66.70;;;;;;5061440;28;1483;-70
2023/10/06 12:45:11;;;;;;;;;;;20.90;66.30;;;;;;5065339;28;1263;-71
2023/10/06 12:47:38;;;;;;;;;;;20.90;62.60;;;;;;5067935;28;1237;-71
2023/10/06 12:50:08;;;;;;;;;;;20.80;62.30;;;;;;5063478;28;1272;-70
2023/10/06 12:52:34;;;;;;;;;;;20.80;62.90;;;;;;5066792;28;1957;-71
2023/10/06 12:55:05;;;;;;;;;;;20.80;63.00;;;;;;5068485;28;1477;-71
2023/10/06 12:57:34;;;;;;;;;;;20.80;63.30;;;;;;5058721;28;1460;-71
2023/10/06 13:00:00;;;;;;;;;;;20.80;63.60;;;;;;5061371;28;1909;-70
2023/10/06 13:02:25;;;;;;;;;;;20.70;63.80;;;;;;5059908;28;1363;-70
2023/10/06 13:04:52;;;;;;;;;;;20.80;64.00;;;;;;5062473;28;1339;-71
2023/10/06 13:07:18;;;;;;;;;;;20.80;64.00;;;;;;5061911;28;1134;-71
2023/10/06 13:09:49;;;;;;;;;;;20.70;64.00;;;;;;5058966;28;1541;-71
2023/10/06 13:12:14;;;;;;;;;;;20.80;64.20;;;;;;5063771;28;1541;-71
2023/10/06 13:14:42;;;;;;;;;;;20.80;64.50;;;;;;5061866;28;1299;-71
2023/10/06 13:17:08;;;;;;;;;;;20.70;64.40;;;;;;5062753;28;1207;-71
2023/10/06 13:19:33;;;;;;;;;;;20.70;64.70;;;;;;5061328;28;1969;-70
2023/10/06 13:21:59;;;;;;;;;;;20.70;64.60;;;;;;5062330;28;1318;-69
2023/10/06 13:24:24;;;;;;;;;;;20.70;64.50;;;;;;5061351;28;1557;-69
2023/10/06 13:26:51;;;;;;;;;;;20.70;64.70;;;;;;5064022;28;1333;-69
2023/10/06 13:29:19;;;;;;;;;;;20.70;64.70;;;;;;5063671;28;1402;-70
2023/10/06 13:31:47;;;;;;;;;;;20.70;64.60;;;;;;5061984;28;1352;-70
2023/10/06 13:34:12;;;;;;;;;;;20.70;64.70;;;;;;5064568;28;1323;-70
2023/10/06 13:36:40;;;;;;;;;;;20.70;64.50;;;;;;5064438;28;1253;-70
2023/10/06 13:39:09;;;;;;;;;;;20.70;63.70;;;;;;5063314;28;1980;-70
2023/10/06 13:41:41;;;;;;;;;;;20.70;63.90;;;;;;5062840;28;1233;-69
2023/10/06 13:44:07;;;;;;;;;;;20.70;64.30;;;;;;5060548;28;1215;-70
2023/10/06 13:46:32;;;;;;;;;;;20.70;64.80;;;;;;5061743;28;1537;-71
2023/10/06 13:48:58;;;;;;;;;;;20.70;65.10;;;;;;5065238;28;1390;-70
2023/10/06 13:51:23;;;;;;;;;;;20.70;65.40;;;;;;5058421;28;1256;-70
2023/10/06 13:53:49;;;;;;;;;;;20.70;65.60;;;;;;5059479;28;1354;-70
2023/10/06 13:56:14;;;;;;;;;;;20.70;65.60;;;;;;5064518;28;1363;-70
2023/10/06 13:58:40;;;;;;;;;;;20.70;65.80;;;;;;5059690;28;1363;-70
2023/10/06 14:01:09;;;;;;;;;;;20.70;65.90;;;;;;5064267;28;1949;-71
2023/10/06 14:03:34;;;;;;;;;;;20.70;66.10;;;;;;5057891;28;1246;-71
2023/10/06 14:06:00;;;;;;;;;;;20.70;66.10;;;;;;5058558;28;2131;-69
2023/10/06 14:08:26;;;;;;;;;;;20.70;66.20;;;;;;5062024;28;1523;-70
2023/10/06 14:10:51;;;;;;;;;;;20.70;66.30;;;;;;5060475;28;1265;-70
2023/10/06 14:13:23;;;;;;;;;;;20.70;66.20;;;;;;5061954;28;1370;-70
2023/10/06 14:18:26;;;;;;;;;;;20.60;66.30;;;;;;5061850;28;1393;-70
2023/10/06 14:20:58;;;;;;;;;;;20.70;66.40;;;;;;5062878;28;1961;-70
2023/10/06 14:23:28;;;;;;;;;;;20.60;66.40;;;;;;5060523;28;951;-71
2023/10/06 14:25:56;;;;;;;;;;;20.60;66.50;;;;;;5060572;28;1091;-71
2023/10/06 14:28:22;;;;;;;;;;;20.60;66.50;;;;;;5065014;28;1296;-70
2023/10/06 14:30:49;;;;;;;;;;;20.60;66.50;;;;;;5060111;28;961;-70
2023/10/06 14:46:27;;;;;;;;;;;20.60;67.00;;;;;;5060647;28;1244;-69
2023/10/06 14:48:56;;;;;;;;;;;20.60;67.00;;;;;;5057986;28;1382;-69
2023/10/06 14:51:21;;;;;;;;;;;20.60;67.00;;;;;;5059199;28;1315;-68
2023/10/06 14:53:48;;;;;;;;;;;20.60;67.10;;;;;;5062878;28;1496;-69
2023/10/06 14:56:13;;;;;;;;;;;20.60;67.00;;;;;;5060798;28;1102;-69
2023/10/06 14:58:39;;;;;;;;;;;20.60;67.00;;;;;;5059075;28;1601;-69